KMVE/MVE METAR and TAF weather

Enter ICAO airport designator
Station Type Date Time Source
KMVE METAR 2019/05/21 21:36 UTC NOAA

KMVE 212136Z AUTO 13027G31KT 10SM OVC055 14/02 A2980 RMK AO2


Station Type Date Time Source
KMVE Decoded METAR 2019/05/21 21:36 UTC NOAA

Montevideo, Montevideo-Chippewa County Airport, MN, United States (KMVE) 44-58N 095-43W
May 21, 2019 - 05:36 PM EDT / 2019.05.21 2136 UTC
Wind: from the SE (130 degrees) at 31 MPH (27 KT) gusting to 36 MPH (31 KT):0
Visibility: 10 mile(s):0
Sky conditions: overcast
Temperature: 57 F (14 C)
Dew Point: 35 F (2 C)
Relative Humidity: 44%
Pressure (altimeter): 29.8 in. Hg (1009 hPa)
ob: KMVE 212136Z AUTO 13027G31KT 10SM OVC055 14/02 A2980 RMK AO2
cycle: 21

Station Type Date Time Source
KMVE TAF UTC NOAA

Error!

Example: see airport list